Time;durP1;ratioP1;P1;durP2;ratioP2;P2;SDS_P1;SDS_P2;PMS_P1;PMS_P2;Temp;Humidity;BMP_temperature;BMP_pressure;BME280_temperature;BME280_humidity;BME280_pressure;Samples;Min_cycle;Max_cycle;Signal;HPM_P1;HPM_P2
2022/10/17 00:02:18;;;;;;;26.40;15.05;;;;;;;13.53;100.00;101495.47;5225468;28;20067;-74
2022/10/17 00:04:48;;;;;;;32.75;15.32;;;;;;;13.53;100.00;101488.22;5224913;28;20049;-74
2022/10/17 00:07:20;;;;;;;25.48;14.88;;;;;;;13.50;100.00;101495.81;5224617;28;20056;-74
2022/10/17 00:09:51;;;;;;;21.08;12.70;;;;;;;13.43;100.00;101487.56;5224649;28;20025;-74
2022/10/17 00:12:21;;;;;;;29.40;14.45;;;;;;;13.42;100.00;101488.56;5224486;28;20029;-74
2022/10/17 00:14:51;;;;;;;27.98;14.65;;;;;;;13.42;100.00;101489.41;5224522;28;20112;-74
2022/10/17 00:17:22;;;;;;;27.80;14.85;;;;;;;13.39;100.00;101487.06;5224193;28;20104;-74
2022/10/17 00:19:52;;;;;;;27.33;15.20;;;;;;;13.38;100.00;101488.06;5224217;28;20494;-73
2022/10/17 00:22:23;;;;;;;28.60;16.00;;;;;;;13.40;100.00;101487.88;5224665;28;20056;-73
2022/10/17 00:24:53;;;;;;;28.50;14.27;;;;;;;13.42;100.00;101494.81;5223841;28;20062;-74
2022/10/17 00:27:24;;;;;;;24.05;15.25;;;;;;;13.45;100.00;101489.09;5223846;28;20049;-74
2022/10/17 00:29:54;;;;;;;22.88;13.88;;;;;;;13.43;100.00;101488.41;5224040;28;20021;-74
2022/10/17 00:32:25;;;;;;;21.92;13.77;;;;;;;13.42;100.00;101489.41;5223745;28;20116;-74
2022/10/17 00:34:56;;;;;;;25.17;14.70;;;;;;;13.42;100.00;101493.97;5224330;28;20025;-74
2022/10/17 00:37:28;;;;;;;24.40;13.52;;;;;;;13.42;100.00;101488.56;5223074;28;20055;-73
2022/10/17 00:39:59;;;;;;;24.20;12.98;;;;;;;13.41;100.00;101489.59;5223716;28;20096;-73
2022/10/17 00:42:29;;;;;;;24.45;12.52;;;;;;;13.38;100.00;101501.53;5223721;28;20104;-74
2022/10/17 00:45:14;;;;;;;25.35;11.82;;;;;;;13.34;100.00;101488.56;5223666;28;20021;-74
2022/10/17 00:47:49;;;;;;;29.70;11.27;;;;;;;13.32;100.00;101496.00;5210652;28;20112;-74
2022/10/17 00:50:20;;;;;;;;;;;;;;;13.33;100.00;101501.19;5223987;28;20067;-74
2022/10/17 00:52:52;;;;;;;22.60;13.73;;;;;;;13.31;100.00;101492.47;5223826;28;19963;-73
2022/10/17 00:55:28;;;;;;;22.50;12.02;;;;;;;13.30;100.00;101492.59;5223670;28;20441;-74
2022/10/17 00:58:01;;;;;;;26.70;11.60;;;;;;;13.29;100.00;101499.84;5222896;28;20029;-74
2022/10/17 01:00:32;;;;;;;26.73;13.27;;;;;;;13.29;100.00;101497.16;5223531;28;20028;-74
2022/10/17 01:03:03;;;;;;;24.63;12.13;;;;;;;13.30;100.00;101493.44;5223848;28;20021;-74
2022/10/17 01:05:34;;;;;;;28.55;13.63;;;;;;;13.35;100.00;101495.63;5223955;28;20044;-74
2022/10/17 01:08:07;;;;;;;24.73;12.70;;;;;;;13.38;100.00;101500.69;5223250;28;20028;-74
2022/10/17 01:10:42;;;;;;;25.77;13.40;;;;;;;13.39;100.00;101491.59;5259331;28;20479;-74
2022/10/17 01:13:22;;;;;;;24.38;12.70;;;;;;;13.37;100.00;101493.63;5227886;28;20056;-74
2022/10/17 01:16:42;;;;;;;27.17;12.85;;;;;;;13.32;100.00;101490.59;5227663;28;20052;-73
2022/10/17 01:19:51;;;;;;;22.73;11.95;;;;;;;13.21;100.00;101489.94;5226069;28;20032;-74
2022/10/17 01:22:39;;;;;;;25.02;12.95;;;;;;;13.21;100.00;101480.97;5204722;28;20082;-74
2022/10/17 01:25:36;;;;;;;24.17;11.43;;;;;;;13.26;100.00;101493.97;5204354;28;20446;-74
2022/10/17 01:28:48;;;;;;;16.00;10.02;;;;;;;13.28;100.00;101489.25;5214262;28;20041;-74
2022/10/17 01:31:28;;;;;;;16.25;7.75;;;;;;;13.18;100.00;101486.69;5223095;28;20119;-74
2022/10/17 01:34:08;;;;;;;16.45;9.38;;;;;;;13.13;100.00;101495.28;5227686;28;20048;-73
2022/10/17 01:36:48;;;;;;;16.73;8.35;;;;;;;13.09;100.00;101491.22;5227411;28;20033;-73
2022/10/17 01:39:43;;;;;;;25.83;13.57;;;;;;;13.13;100.00;101486.34;5227125;28;20028;-73
2022/10/17 01:42:18;;;;;;;19.87;10.43;;;;;;;13.21;100.00;101486.38;5227554;28;20035;-74
2022/10/17 01:44:57;;;;;;;22.90;13.05;;;;;;;13.24;100.00;101493.28;5227439;28;20275;-73
2022/10/17 01:47:31;;;;;;;22.60;12.25;;;;;;;13.26;100.00;101491.28;5226771;28;20517;-74
2022/10/17 01:50:17;;;;;;;18.90;11.23;;;;;;;13.27;100.00;101492.97;5227177;28;20359;-74
2022/10/17 01:52:57;;;;;;;19.88;9.55;;;;;;;13.29;100.00;101483.69;5227406;28;20028;-74
2022/10/17 01:55:38;;;;;;;18.45;10.90;;;;;;;13.28;100.00;101489.25;5227100;28;20020;-74
2022/10/17 01:58:16;;;;;;;17.17;10.73;;;;;;;13.23;100.00;101480.81;5226483;28;20104;-73
2022/10/17 02:00:48;;;;;;;20.20;11.88;;;;;;;13.24;100.00;101475.25;5226711;28;20029;-74
2022/10/17 02:03:20;;;;;;;17.85;9.18;;;;;;;13.18;100.00;101473.22;5226868;28;20064;-73
2022/10/17 02:05:51;;;;;;;13.88;7.95;;;;;;;13.08;100.00;101480.63;5226928;28;20048;-74
2022/10/17 02:08:39;;;;;;;12.23;6.57;;;;;;;12.97;100.00;101476.41;5226166;28;20605;-73
2022/10/17 02:11:17;;;;;;;14.40;8.10;;;;;;;12.88;100.00;101477.41;5225388;28;20024;-74
2022/10/17 02:13:54;;;;;;;12.45;7.10;;;;;;;12.79;100.00;101473.00;5226963;28;20147;-74
2022/10/17 02:16:43;;;;;;;16.73;8.80;;;;;;;12.82;100.00;101472.69;5226478;28;20017;-74
2022/10/17 02:19:29;;;;;;;27.00;12.30;;;;;;;13.14;100.00;101472.69;5225984;28;20028;-72
2022/10/17 02:22:30;;;;;;;26.95;14.52;;;;;;;13.38;100.00;101471.91;5226728;28;20154;-74
2022/10/17 02:25:33;;;;;;;28.80;14.27;;;;;;;13.67;100.00;101476.75;5213312;28;20441;-74
2022/10/17 02:28:07;;;;;;;29.42;14.70;;;;;;;13.86;100.00;101474.69;5225555;28;20114;-74
2022/10/17 02:30:46;;;;;;;30.55;15.55;;;;;;;14.00;100.00;101468.56;5225736;28;20070;-72
2022/10/17 02:33:40;;;;;;;34.58;16.13;;;;;;;14.30;100.00;101476.91;5226770;28;20029;-74
2022/10/17 02:36:17;;;;;;;29.98;15.18;;;;;;;14.36;100.00;101470.81;5225962;28;20028;-74
2022/10/17 02:38:51;;;;;;;31.63;15.63;;;;;;;14.43;100.00;101472.63;5225850;28;20099;-73
2022/10/17 02:41:23;;;;;;;31.58;15.93;;;;;;;14.57;100.00;101481.03;5225171;28;20028;-74
2022/10/17 02:43:53;;;;;;;28.75;14.32;;;;;;;14.76;100.00;101480.59;5226314;28;20052;-74
2022/10/17 02:46:27;;;;;;;38.70;15.27;;;;;;;14.87;100.00;101482.03;5226016;28;20017;-74
2022/10/17 02:49:07;;;;;;;28.08;12.98;;;;;;;14.95;100.00;101479.25;5224330;28;20052;-74
2022/10/17 02:51:56;;;;;;;24.75;13.73;;;;;;;15.11;100.00;101473.75;5226087;28;20025;-74
2022/10/17 02:54:46;;;;;;;26.52;13.60;;;;;;;15.16;100.00;101474.06;5226160;28;20078;-73
2022/10/17 02:58:03;;;;;;;25.35;11.90;;;;;;;15.27;100.00;101476.31;5225213;28;20024;-74
2022/10/17 03:00:33;;;;;;;;;;;;;;;15.34;100.00;101468.31;5224539;28;20136;-74
2022/10/17 03:03:19;;;;;;;28.65;12.10;;;;;;;15.40;100.00;101475.69;5225412;28;19944;-74
2022/10/17 03:05:49;;;;;;;16.85;11.20;;;;;;;15.50;100.00;101472.72;5225879;28;20039;-74
2022/10/17 03:08:20;;;;;;;17.75;10.65;;;;;;;15.55;100.00;101467.59;5225308;28;20020;-74
2022/10/17 03:10:50;;;;;;;16.45;10.35;;;;;;;15.65;100.00;101465.50;5225709;28;20021;-72
2022/10/17 03:13:21;;;;;;;18.98;9.45;;;;;;;15.69;100.00;101469.53;5225430;28;20048;-73
2022/10/17 03:15:51;;;;;;;22.23;8.93;;;;;;;15.80;100.00;101463.66;5225389;28;20025;-73
2022/10/17 03:18:22;;;;;;;15.73;9.15;;;;;;;15.92;100.00;101466.75;5224830;28;20021;-74
2022/10/17 03:20:52;;;;;;;18.48;8.50;;;;;;;16.01;100.00;101473.78;5225511;28;20032;-73
2022/10/17 03:23:23;;;;;;;18.50;9.07;;;;;;;16.09;100.00;101488.22;5212410;28;20103;-73
2022/10/17 03:25:53;;;;;;;14.05;8.52;;;;;;;16.12;100.00;101485.16;5225035;28;20124;-73
2022/10/17 03:28:23;;;;;;;17.05;8.27;;;;;;;16.17;100.00;101485.44;5224595;28;20542;-73
2022/10/17 03:30:54;;;;;;;17.63;7.90;;;;;;;16.20;100.00;101491.28;5224725;28;20107;-74
2022/10/17 03:33:24;;;;;;;18.70;8.63;;;;;;;16.28;100.00;101488.50;5224745;28;20033;-74
2022/10/17 03:35:55;;;;;;;11.45;7.82;;;;;;;16.31;100.00;101493.53;5225051;28;20113;-74
2022/10/17 03:38:25;;;;;;;13.10;8.13;;;;;;;16.35;100.00;101487.72;5224222;28;20465;-73
2022/10/17 03:40:56;;;;;;;12.73;8.02;;;;;;;16.37;100.00;101483.00;5224767;28;20027;-74
2022/10/17 03:43:26;;;;;;;12.73;7.57;;;;;;;16.44;100.00;101484.72;5225122;28;20023;-73
2022/10/17 03:45:57;;;;;;;14.98;7.35;;;;;;;16.48;100.00;101479.78;5224833;28;20029;-74
2022/10/17 03:48:30;;;;;;;11.18;7.13;;;;;;;16.50;100.00;101475.84;5224288;28;20021;-74
2022/10/17 03:51:03;;;;;;;15.80;7.07;;;;;;;16.50;100.00;101481.25;5222987;28;20478;-73
2022/10/17 03:53:34;;;;;;;12.93;8.35;;;;;;;16.49;100.00;101485.00;5225044;28;20029;-74
2022/10/17 03:56:26;;;;;;;15.55;7.95;;;;;;;16.47;100.00;101502.50;5224730;28;20032;-74
2022/10/17 03:58:57;;;;;;;14.43;7.68;;;;;;;16.41;100.00;101498.63;5224014;28;20055;-74
2022/10/17 04:01:27;;;;;;;15.38;7.68;;;;;;;16.45;100.00;101501.81;5224218;28;20025;-73
2022/10/17 04:03:57;;;;;;;15.05;8.10;;;;;;;16.42;100.00;101511.19;5224874;28;20052;-74
2022/10/17 04:06:28;;;;;;;16.30;7.32;;;;;;;16.47;100.00;101507.91;5224370;28;20513;-73
2022/10/17 04:08:59;;;;;;;14.77;8.13;;;;;;;16.52;100.00;101517.13;5224116;28;20487;-74
2022/10/17 04:11:29;;;;;;;20.00;7.68;;;;;;;16.54;100.00;101519.66;5224366;28;20021;-74
2022/10/17 04:14:00;;;;;;;11.32;7.32;;;;;;;16.55;100.00;101529.44;5224662;28;20075;-74
2022/10/17 04:16:30;;;;;;;23.15;7.60;;;;;;;16.51;100.00;101520.00;5222936;28;20025;-72
2022/10/17 04:19:01;;;;;;;15.13;8.70;;;;;;;16.46;100.00;101527.88;5224063;28;20391;-74
2022/10/17 04:21:31;;;;;;;14.82;7.25;;;;;;;16.42;100.00;101524.72;5224191;28;20024;-73
2022/10/17 04:24:02;;;;;;;13.75;7.82;;;;;;;16.42;100.00;101532.00;5224369;28;20025;-74
2022/10/17 04:26:33;;;;;;;18.42;7.97;;;;;;;16.42;100.00;101534.72;5224092;28;20029;-73
2022/10/17 04:29:03;;;;;;;14.50;7.30;;;;;;;16.49;100.00;101533.75;5223579;28;20034;-74
2022/10/17 04:31:34;;;;;;;14.70;7.53;;;;;;;16.48;100.00;101542.91;5223594;28;20037;-76
2022/10/17 04:34:05;;;;;;;12.35;7.57;;;;;;;16.53;100.00;101528.81;5224115;28;20025;-76
2022/10/17 04:36:35;;;;;;;16.33;7.38;;;;;;;16.51;100.00;101530.84;5223911;28;20033;-76
2022/10/17 04:39:06;;;;;;;16.40;7.45;;;;;;;16.52;100.00;101533.38;5223127;28;20079;-76
2022/10/17 04:41:36;;;;;;;13.35;7.32;;;;;;;16.58;100.00;101529.91;5223920;28;20073;-76
2022/10/17 04:44:06;;;;;;;13.20;7.03;;;;;;;16.64;100.00;101530.19;5223253;28;20031;-76
2022/10/17 04:46:37;;;;;;;12.65;6.53;;;;;;;16.63;100.00;101537.47;5223677;28;20044;-77
2022/10/17 04:49:08;;;;;;;11.23;7.20;;;;;;;16.58;100.00;101546.16;5223280;28;20021;-77
2022/10/17 04:51:39;;;;;;;15.82;6.93;;;;;;;16.63;100.00;101547.47;5223892;28;20048;-72
2022/10/17 04:54:09;;;;;;;16.95;7.47;;;;;;;16.65;100.00;101537.28;5224373;28;20024;-73
2022/10/17 04:56:40;;;;;;;12.93;7.05;;;;;;;16.64;100.00;101538.31;5223524;28;20032;-74
2022/10/17 04:59:10;;;;;;;15.95;7.35;;;;;;;16.62;100.00;101546.66;5223824;28;20025;-74
2022/10/17 05:01:41;;;;;;;15.88;6.85;;;;;;;16.60;100.00;101561.38;5223703;28;20033;-73
2022/10/17 05:04:11;;;;;;;13.68;6.78;;;;;;;16.54;100.00;101563.00;5256192;28;20029;-73
2022/10/17 05:06:41;;;;;;;10.00;6.78;;;;;;;16.46;100.00;101569.31;5223254;28;20487;-73
2022/10/17 05:09:12;;;;;;;12.10;6.50;;;;;;;16.42;100.00;101576.16;5223366;28;20028;-73
2022/10/17 05:11:42;;;;;;;12.13;7.03;;;;;;;16.41;100.00;101566.34;5223555;28;20434;-73
2022/10/17 05:14:14;;;;;;;12.85;7.38;;;;;;;16.40;100.00;101571.94;5223495;28;20032;-74
2022/10/17 05:16:44;;;;;;;13.65;7.20;;;;;;;16.39;100.00;101565.69;5223050;28;20028;-73
2022/10/17 05:19:16;;;;;;;11.35;6.40;;;;;;;16.39;100.00;101571.13;5223375;28;20027;-74
2022/10/17 05:21:46;;;;;;;17.83;8.25;;;;;;;16.42;100.00;101567.22;5223495;28;20025;-74
2022/10/17 05:24:16;;;;;;;12.90;7.13;;;;;;;16.43;100.00;101571.59;5223497;28;20083;-74
2022/10/17 05:26:49;;;;;;;13.93;6.65;;;;;;;16.41;100.00;101573.63;5222683;28;20078;-73
2022/10/17 05:29:20;;;;;;;12.73;6.60;;;;;;;16.41;100.00;101566.34;5223356;28;20570;-73
2022/10/17 05:31:50;;;;;;;11.15;7.07;;;;;;;16.44;100.00;101575.97;5223034;28;20109;-73
2022/10/17 05:34:21;;;;;;;12.68;6.47;;;;;;;16.46;100.00;101571.19;5223416;28;20021;-73
2022/10/17 05:36:51;;;;;;;13.75;7.07;;;;;;;16.48;100.00;101577.28;5222797;28;20060;-74
2022/10/17 05:39:22;;;;;;;15.57;7.07;;;;;;;16.49;100.00;101565.41;5222977;28;20455;-73
2022/10/17 05:41:52;;;;;;;17.00;7.18;;;;;;;16.48;100.00;101574.56;5223081;28;20025;-72
2022/10/17 05:44:23;;;;;;;12.30;7.38;;;;;;;16.47;100.00;101575.63;5223877;28;20099;-74
2022/10/17 05:46:53;;;;;;;13.10;6.60;;;;;;;16.47;100.00;101578.31;5222560;28;20049;-74
2022/10/17 05:49:23;;;;;;;13.20;6.40;;;;;;;16.47;100.00;101575.63;5223506;28;20058;-74
2022/10/17 05:51:54;;;;;;;11.65;6.43;;;;;;;16.47;100.00;101570.19;5222776;28;20562;-72
2022/10/17 05:54:24;;;;;;;16.52;7.18;;;;;;;16.51;100.00;101580.44;5223476;28;20025;-72
2022/10/17 05:56:55;;;;;;;14.50;7.13;;;;;;;16.56;100.00;101580.72;5226100;28;20021;-72
2022/10/17 05:59:26;;;;;;;16.38;6.53;;;;;;;16.58;100.00;101591.38;5227489;28;20071;-72
2022/10/17 06:01:57;;;;;;;9.05;6.28;;;;;;;16.62;100.00;101581.00;5227350;28;20456;-73
2022/10/17 06:04:27;;;;;;;14.35;6.90;;;;;;;16.64;100.00;101584.38;5226788;28;20099;-73
2022/10/17 06:06:58;;;;;;;8.93;6.32;;;;;;;16.67;100.00;101584.84;5226228;28;20021;-73
2022/10/17 06:09:28;;;;;;;15.40;6.53;;;;;;;16.73;100.00;101575.16;5226806;28;20413;-73
2022/10/17 06:11:59;;;;;;;12.88;6.20;;;;;;;16.82;100.00;101582.16;5226624;28;20037;-74
2022/10/17 06:14:29;;;;;;;10.07;6.07;;;;;;;16.87;100.00;101586.97;5226699;28;20083;-73
2022/10/17 06:17:00;;;;;;;9.73;6.40;;;;;;;16.88;100.00;101591.38;5225849;28;20032;-73
2022/10/17 06:19:30;;;;;;;10.15;6.18;;;;;;;16.90;100.00;101601.00;5226605;28;20025;-73
2022/10/17 06:22:01;;;;;;;15.23;6.25;;;;;;;16.88;100.00;101602.22;5226660;28;20104;-73
2022/10/17 06:24:31;;;;;;;16.02;6.70;;;;;;;16.88;100.00;101603.06;5226481;28;20067;-71
2022/10/17 06:27:02;;;;;;;14.13;6.55;;;;;;;16.88;100.00;101589.50;5225757;28;20032;-71
2022/10/17 06:29:32;;;;;;;15.55;5.70;;;;;;;16.86;100.00;101593.44;5226120;28;20068;-73
2022/10/17 06:32:03;;;;;;;12.80;6.20;;;;;;;16.88;100.00;101591.38;5226393;28;20028;-74
2022/10/17 06:34:33;;;;;;;12.68;6.43;;;;;;;16.91;100.00;101596.41;5226369;28;20029;-72
2022/10/17 06:37:04;;;;;;;10.45;6.15;;;;;;;16.92;100.00;101601.66;5225595;28;20132;-73
2022/10/17 06:39:35;;;;;;;11.75;6.20;;;;;;;16.96;100.00;101611.06;5226381;28;20526;-73
2022/10/17 06:42:05;;;;;;;10.82;5.97;;;;;;;17.01;100.00;101618.63;5225946;28;20870;-73
2022/10/17 06:44:35;;;;;;;9.65;5.82;;;;;;;17.07;100.00;101621.44;5226311;28;20029;-73
2022/10/17 06:47:06;;;;;;;10.35;5.95;;;;;;;17.13;100.00;101637.97;5225671;28;20025;-73
2022/10/17 06:49:36;;;;;;;14.35;6.13;;;;;;;17.15;100.00;101638.63;5226272;28;20017;-73
2022/10/17 06:52:07;;;;;;;10.02;5.38;;;;;;;17.19;100.00;101638.06;5225685;28;20029;-74
2022/10/17 06:54:37;;;;;;;13.15;5.65;;;;;;;17.21;100.00;101649.53;5226046;28;20142;-71
2022/10/17 06:57:08;;;;;;;15.02;5.85;;;;;;;17.22;100.00;101661.22;5225078;28;20029;-71
2022/10/17 06:59:38;;;;;;;10.73;5.03;;;;;;;17.21;100.00;101690.19;5226010;28;20483;-70
2022/10/17 07:02:09;;;;;;;14.85;6.13;;;;;;;17.21;100.00;101709.19;5225810;28;20021;-71
2022/10/17 07:04:40;;;;;;;9.93;5.50;;;;;;;17.25;100.00;101710.50;5225537;28;20638;-71
2022/10/17 07:07:10;;;;;;;9.18;5.38;;;;;;;17.26;100.00;101706.75;5224337;28;20036;-70
2022/10/17 07:09:41;;;;;;;10.63;5.65;;;;;;;17.27;100.00;101704.88;5225631;28;20597;-71
2022/10/17 07:12:11;;;;;;;12.00;5.40;;;;;;;17.36;100.00;101709.16;5225705;28;20130;-70
2022/10/17 07:14:42;;;;;;;8.75;5.78;;;;;;;17.43;100.00;101709.25;5225553;28;20020;-71
2022/10/17 07:17:12;;;;;;;12.85;5.72;;;;;;;17.46;100.00;101711.56;5224558;28;20027;-71
2022/10/17 07:19:43;;;;;;;14.52;5.30;;;;;;;17.52;100.00;101719.81;5225469;28;20123;-69
2022/10/17 07:22:13;;;;;;;13.52;5.63;;;;;;;17.55;100.00;101721.28;5225976;28;20020;-71
2022/10/17 07:24:44;;;;;;;7.95;5.00;;;;;;;17.59;100.00;101723.44;5225498;28;20097;-71
2022/10/17 07:27:14;;;;;;;13.80;5.18;;;;;;;17.69;100.00;101731.28;5225089;28;20368;-72
2022/10/17 07:29:45;;;;;;;9.95;5.25;;;;;;;17.78;100.00;101742.88;5225147;28;20020;-72
2022/10/17 07:32:15;;;;;;;12.05;4.90;;;;;;;17.85;100.00;101751.94;5224824;28;20552;-71
2022/10/17 07:34:45;;;;;;;6.93;4.30;;;;;;;17.88;100.00;101762.41;5225454;28;20151;-71
2022/10/17 07:37:16;;;;;;;9.00;4.93;;;;;;;17.89;100.00;101771.41;5224527;28;20082;-70
2022/10/17 07:39:47;;;;;;;9.65;4.68;;;;;;;17.85;100.00;101788.06;5225111;28;20601;-71
2022/10/17 07:42:17;;;;;;;10.98;5.22;;;;;;;17.87;100.00;101790.56;5224500;28;20103;-71
2022/10/17 07:44:48;;;;;;;10.30;5.15;;;;;;;17.81;100.00;101797.59;5225060;28;20122;-71
2022/10/17 07:47:18;;;;;;;10.25;5.25;;;;;;;17.84;100.00;101809.97;5224264;28;20099;-71
2022/10/17 07:49:49;;;;;;;11.35;5.18;;;;;;;17.77;100.00;101811.75;5225024;28;20061;-71
2022/10/17 07:52:19;;;;;;;10.50;4.63;;;;;;;17.71;100.00;101820.63;5224651;28;20029;-72
2022/10/17 07:54:49;;;;;;;13.13;4.70;;;;;;;17.67;100.00;101832.88;5224673;28;20025;-71
2022/10/17 07:57:20;;;;;;;11.23;4.25;;;;;;;17.64;100.00;101839.53;5224210;28;20501;-70
2022/10/17 07:59:50;;;;;;;8.95;5.03;;;;;;;17.58;100.00;101846.56;5224695;28;20486;-71
2022/10/17 08:02:24;;;;;;;8.00;4.38;;;;;;;17.55;100.00;101855.06;5224898;28;20025;-71
2022/10/17 08:04:55;;;;;;;9.93;4.70;;;;;;;17.50;100.00;101846.66;5224490;28;20025;-71
2022/10/17 08:07:25;;;;;;;7.88;4.55;;;;;;;17.48;100.00;101835.16;5223897;28;20562;-71
2022/10/17 08:09:55;;;;;;;6.72;3.95;;;;;;;17.32;100.00;101833.47;5224372;28;20386;-71
2022/10/17 08:12:26;;;;;;;8.07;4.40;;;;;;;17.28;100.00;101836.75;5224459;28;20029;-70
2022/10/17 08:14:56;;;;;;;6.55;3.78;;;;;;;17.21;100.00;101825.78;5224249;28;20096;-70
2022/10/17 08:17:27;;;;;;;7.78;3.60;;;;;;;17.16;100.00;101816.53;5223767;28;20031;-71
2022/10/17 08:19:57;;;;;;;8.80;4.28;;;;;;;17.16;100.00;101822.78;5224075;28;21082;-71
2022/10/17 08:22:28;;;;;;;9.30;4.28;;;;;;;17.12;100.00;101826.94;5224336;28;20021;-71
2022/10/17 08:24:58;;;;;;;11.05;5.13;;;;;;;17.08;100.00;101841.88;5224275;28;20100;-71
2022/10/17 08:27:28;;;;;;;8.50;4.28;;;;;;;17.08;100.00;101841.88;5223515;28;20024;-71
2022/10/17 08:29:59;;;;;;;7.03;4.65;;;;;;;17.06;100.00;101850.16;5224198;28;20021;-69
2022/10/17 08:32:29;;;;;;;11.85;5.18;;;;;;;17.02;100.00;101851.59;5223794;28;20032;-72
2022/10/17 08:35:01;;;;;;;8.55;4.82;;;;;;;16.97;100.00;101883.00;5224542;28;20467;-71
2022/10/17 08:37:31;;;;;;;8.25;4.28;;;;;;;16.86;100.00;101905.06;5223454;28;20021;-71
2022/10/17 08:40:03;;;;;;;16.70;4.55;;;;;;;16.78;100.00;101903.28;5224202;28;20078;-71
2022/10/17 08:42:42;;;;;;;11.70;5.00;;;;;;;16.74;100.00;101899.25;5223573;28;20024;-72
2022/10/17 08:45:15;;;;;;;12.02;5.13;;;;;;;16.68;100.00;101889.13;5223947;28;20074;-71
2022/10/17 08:47:57;;;;;;;8.88;4.72;;;;;;;16.67;100.00;101846.81;5223480;28;20044;-72
2022/10/17 08:50:35;;;;;;;14.40;5.65;;;;;;;16.69;100.00;101839.31;5224101;28;20032;-72
2022/10/17 08:53:20;;;;;;;15.25;6.60;;;;;;;16.72;100.00;101830.88;5222338;28;20060;-73
2022/10/17 08:55:53;;;;;;;14.93;6.47;;;;;;;16.80;100.00;101828.06;5211787;28;20032;-72
2022/10/17 08:58:28;;;;;;;19.05;6.72;;;;;;;16.92;100.00;101842.88;5223200;28;20028;-72
2022/10/17 09:01:17;;;;;;;;;;;;;;;17.04;100.00;101854.09;5224252;28;20021;-72
2022/10/17 09:04:12;;;;;;;13.85;6.22;;;;;;;17.07;100.00;101837.47;5223587;28;20401;-74
2022/10/17 09:07:02;;;;;;;14.07;6.70;;;;;;;17.14;100.00;101854.69;5223360;28;20398;-74
2022/10/17 09:10:06;;;;;;;14.15;6.38;;;;;;;17.16;100.00;101851.78;5223468;28;20104;-74
2022/10/17 09:12:49;;;;;;;10.88;6.82;;;;;;;17.15;100.00;101840.09;5223649;28;20112;-74
2022/10/17 09:15:30;;;;;;;13.77;7.15;;;;;;;17.14;100.00;101824.84;5211716;28;20028;-74
2022/10/17 09:18:10;;;;;;;16.13;7.47;;;;;;;17.12;100.00;101821.50;5222886;28;20021;-74
2022/10/17 09:20:51;;;;;;;15.30;7.57;;;;;;;17.11;100.00;101824.38;5223783;28;20062;-74
2022/10/17 09:23:26;;;;;;;12.80;7.45;;;;;;;17.06;100.00;101819.50;5210777;28;20104;-74
2022/10/17 09:26:00;;;;;;;26.42;9.27;;;;;;;17.07;100.00;101808.50;5223639;28;20479;-74
2022/10/17 09:28:34;;;;;;;30.83;8.93;;;;;;;17.07;100.00;101810.38;5255022;28;20029;-74
2022/10/17 09:31:19;;;;;;;17.70;8.52;;;;;;;17.08;100.00;101820.19;5225853;28;20560;-74
2022/10/17 09:33:53;;;;;;;21.30;9.73;;;;;;;17.07;100.00;101837.47;5227411;28;20550;-74
2022/10/17 09:36:33;;;;;;;13.82;8.18;;;;;;;17.06;100.00;101835.78;5227849;28;20122;-73
2022/10/17 09:39:11;;;;;;;22.48;9.48;;;;;;;17.03;100.00;101852.44;5226841;28;20032;-74
2022/10/17 09:41:54;;;;;;;17.13;9.85;;;;;;;17.01;100.00;101858.00;5227505;28;20090;-74
2022/10/17 09:44:38;;;;;;;17.58;11.18;;;;;;;17.00;100.00;101885.31;5214749;28;20394;-75
2022/10/17 09:47:24;;;;;;;26.42;12.65;;;;;;;16.98;100.00;101890.94;5226677;28;20028;-73
2022/10/17 09:49:54;;;;;;;33.22;16.77;;;;;;;16.97;100.00;101908.22;5227288;28;20029;-74
2022/10/17 09:52:39;;;;;;;20.92;12.10;;;;;;;16.97;100.00;101915.50;5227204;28;20029;-74
2022/10/17 09:55:42;;;;;;;18.38;10.57;;;;;;;17.00;100.00;101912.41;5227238;28;20098;-74
2022/10/17 09:58:13;;;;;;;16.27;9.95;;;;;;;17.04;100.00;101911.03;5226865;28;20108;-74
2022/10/17 10:00:46;;;;;;;18.23;10.23;;;;;;;17.10;100.00;101913.00;5227131;28;20067;-74
2022/10/17 10:03:21;;;;;;;19.23;10.07;;;;;;;17.15;100.00;101918.72;5227059;28;20025;-74
2022/10/17 10:06:04;;;;;;;16.77;10.52;;;;;;;17.22;100.00;101927.81;5226893;28;20367;-71
2022/10/17 10:08:48;;;;;;;20.77;11.52;;;;;;;17.25;100.00;101935.56;5226484;28;20060;-70
2022/10/17 10:11:24;;;;;;;25.00;12.02;;;;;;;17.29;100.00;101936.06;5226862;28;20056;-72
2022/10/17 10:14:11;;;;;;;23.50;12.35;;;;;;;17.31;100.00;101951.09;5227071;28;20048;-72
2022/10/17 10:16:43;;;;;;;24.60;11.57;;;;;;;17.30;100.00;101954.84;5226495;28;20028;-71
2022/10/17 10:19:35;;;;;;;28.38;11.30;;;;;;;17.30;100.00;101954.84;5226542;28;20028;-71
2022/10/17 10:22:19;;;;;;;20.58;10.70;;;;;;;17.29;100.00;101952.31;5226957;28;20028;-70
2022/10/17 10:25:25;;;;;;;20.42;12.00;;;;;;;17.30;100.00;101954.84;5226603;28;20420;-70
2022/10/17 10:27:55;;;;;;;23.42;12.20;;;;;;;17.31;100.00;101951.09;5177019;28;20535;-71
2022/10/17 10:30:29;;;;;;;21.55;10.45;;;;;;;17.31;100.00;101947.56;5211632;28;20040;-71
2022/10/17 10:33:00;;;;;;;22.00;10.75;;;;;;;17.35;100.00;101957.84;5226207;28;20445;-70
2022/10/17 10:35:33;;;;;;;16.80;11.63;;;;;;;17.37;100.00;101964.97;5226869;28;20032;-71
2022/10/17 10:38:09;;;;;;;19.75;10.13;;;;;;;17.44;100.00;101961.34;5226228;28;20029;-71
2022/10/17 10:40:49;;;;;;;19.85;11.13;;;;;;;17.49;100.00;101968.94;5226204;28;20052;-71
2022/10/17 10:43:32;;;;;;;19.73;10.43;;;;;;;17.52;100.00;101963.09;5225441;28;20029;-72
2022/10/17 10:46:26;;;;;;;17.67;10.98;;;;;;;17.56;100.00;101975.28;5213530;28;20047;-71
2022/10/17 10:48:59;;;;;;;17.73;10.20;;;;;;;17.56;100.00;101973.41;5226030;28;20163;-71
2022/10/17 10:51:36;;;;;;;26.27;10.20;;;;;;;17.58;100.00;101976.81;5227173;28;20087;-71
2022/10/17 10:54:33;;;;;;;20.25;10.82;;;;;;;17.63;100.00;101972.69;5226339;28;20033;-72
2022/10/17 10:57:07;;;;;;;22.08;9.70;;;;;;;17.67;100.00;101993.84;5226454;28;20031;-73
2022/10/17 10:59:52;;;;;;;21.38;9.77;;;;;;;17.66;100.00;102000.28;5227356;28;20040;-76
2022/10/17 11:02:29;;;;;;;20.02;10.50;;;;;;;17.71;100.00;102005.16;5226996;28;20036;-75
2022/10/17 11:05:10;;;;;;;21.17;9.65;;;;;;;17.72;100.00;102002.28;5227062;28;20025;-74
2022/10/17 11:08:04;;;;;;;17.83;9.43;;;;;;;17.72;100.00;102018.56;5227770;28;20092;-74
2022/10/17 11:10:48;;;;;;;18.15;9.48;;;;;;;17.66;100.00;102011.13;5228882;28;20025;-74
2022/10/17 11:13:27;;;;;;;19.17;11.90;;;;;;;17.60;100.00;102010.00;5227585;28;20380;-76
2022/10/17 11:16:07;;;;;;;21.88;12.30;;;;;;;17.59;100.00;102023.75;5227331;28;20052;-74
2022/10/17 11:18:46;;;;;;;23.92;13.80;;;;;;;17.55;100.00;102023.28;5228203;28;20024;-74
2022/10/17 11:22:10;;;;;;;25.52;12.80;;;;;;;17.53;100.00;102027.22;5228431;28;20509;-74
2022/10/17 11:24:55;;;;;;;24.50;12.77;;;;;;;17.56;100.00;102024.97;5197307;28;20688;-74
2022/10/17 11:27:30;;;;;;;23.15;12.13;;;;;;;17.57;100.00;102021.25;5227284;28;20137;-74
2022/10/17 11:30:02;;;;;;;25.07;11.93;;;;;;;17.57;100.00;102032.09;5226873;28;20020;-76
2022/10/17 11:32:42;;;;;;;20.83;11.80;;;;;;;17.59;100.00;102038.19;5238330;28;20264;-75
2022/10/17 11:35:13;;;;;;;18.63;10.77;;;;;;;17.59;100.00;102034.63;5226659;28;20027;-75
2022/10/17 11:37:49;;;;;;;18.15;10.98;;;;;;;17.56;100.00;102030.38;5225671;28;20033;-75
2022/10/17 11:40:32;;;;;;;18.40;10.25;;;;;;;17.55;100.00;102036.00;5226146;28;20028;-76
2022/10/17 11:43:14;;;;;;;16.40;10.35;;;;;;;17.54;100.00;102042.47;5224724;28;20035;-76
2022/10/17 11:45:58;;;;;;;22.73;10.85;;;;;;;17.56;100.00;102040.41;5225881;28;20025;-75